Time;durP1;ratioP1;P1;durP2;ratioP2;P2;SDS_P1;SDS_P2;PMS_P1;PMS_P2;Temp;Humidity;BMP_temperature;BMP_pressure;BME280_temperature;BME280_humidity;BME280_pressure;Samples;Min_cycle;Max_cycle;Signal;HPM_P1;HPM_P2
2021/08/26 00:00:29;;;;;;;7.72;5.43;;;;;;;16.73;88.44;101602.22;5030278;28;20042;-64
2021/08/26 00:06:01;;;;;;;10.45;6.20;;;;;;;16.64;88.69;101593.75;5031029;28;20530;-64
2021/08/26 00:08:30;;;;;;;9.88;5.60;;;;;;;16.65;88.87;101600.09;5031639;28;20124;-63
2021/08/26 00:11:00;;;;;;;7.55;5.45;;;;;;;16.67;88.64;101592.34;5031532;28;20125;-65
2021/08/26 00:13:28;;;;;;;8.95;5.43;;;;;;;16.69;88.40;101585.47;5031531;28;20049;-64
2021/08/26 00:15:57;;;;;;;8.02;4.90;;;;;;;16.69;88.23;101579.13;5029502;28;20080;-64
2021/08/26 00:18:25;;;;;;;7.90;5.32;;;;;;;16.69;88.11;101576.38;5029499;28;20034;-64
2021/08/26 00:20:53;;;;;;;8.48;5.07;;;;;;;16.70;88.20;101569.78;5031188;28;20065;-63
2021/08/26 00:23:21;;;;;;;8.52;5.70;;;;;;;16.69;88.38;101579.97;5031350;28;20104;-64
2021/08/26 00:25:50;;;;;;;8.05;5.32;;;;;;;16.66;88.34;101571.47;5031329;28;20761;-64
2021/08/26 00:28:18;;;;;;;7.65;5.47;;;;;;;16.66;88.42;101568.72;5031212;28;20045;-64
2021/08/26 00:30:46;;;;;;;8.02;5.30;;;;;;;16.66;88.70;101569.53;5031491;28;20052;-63
2021/08/26 00:33:15;;;;;;;9.85;5.45;;;;;;;16.63;88.71;101555.56;5030295;28;20042;-64
2021/08/26 00:35:44;;;;;;;8.80;5.30;;;;;;;16.61;88.64;101556.66;5033965;28;20100;-64
2021/08/26 00:38:12;;;;;;;7.00;4.93;;;;;;;16.60;88.54;101557.75;5034733;28;20045;-64
2021/08/26 00:40:39;;;;;;;8.35;4.80;;;;;;;16.61;88.11;101564.09;5035176;28;20049;-64
2021/08/26 00:43:13;;;;;;;8.15;4.70;;;;;;;16.59;88.39;101555.28;5034642;28;20045;-64
2021/08/26 00:45:42;;;;;;;7.05;4.70;;;;;;;16.60;88.44;101546.75;5035028;28;20064;-65
2021/08/26 00:48:10;;;;;;;10.48;4.70;;;;;;;16.60;88.05;101551.44;5034310;28;20041;-64
2021/08/26 00:50:37;;;;;;;8.70;4.50;;;;;;;16.64;88.38;101557.19;5033276;28;20042;-65
2021/08/26 00:53:05;;;;;;;6.65;4.07;;;;;;;16.64;87.99;101551.69;5034846;28;20049;-64
2021/08/26 00:55:32;;;;;;;8.15;4.47;;;;;;;16.66;87.85;101543.94;5034348;28;20056;-64
2021/08/26 00:58:01;;;;;;;8.25;4.20;;;;;;;16.61;87.47;101545.63;5034747;28;20042;-64
2021/08/26 01:00:30;;;;;;;7.97;4.38;;;;;;;16.57;86.93;101544.59;5032548;28;20038;-64
2021/08/26 01:03:24;;;;;;;5.38;3.35;;;;;;;16.54;86.78;101545.16;5034259;28;20063;-65
2021/08/26 01:06:16;;;;;;;6.55;3.60;;;;;;;16.56;86.67;101540.19;5033377;28;20049;-65
2021/08/26 01:09:11;;;;;;;6.45;3.50;;;;;;;16.56;86.37;101542.13;5034704;28;20046;-64
2021/08/26 01:11:42;;;;;;;7.97;3.83;;;;;;;16.55;86.13;101546.81;5034901;28;20041;-64
2021/08/26 01:14:10;;;;;;;8.00;3.80;;;;;;;16.53;86.49;101538.03;5035273;28;20043;-65
2021/08/26 01:16:38;;;;;;;6.38;3.50;;;;;;;16.50;86.12;101533.13;5032153;28;20041;-64
2021/08/26 01:19:06;;;;;;;7.05;3.22;;;;;;;16.49;86.37;101514.13;5033727;28;20050;-64
2021/08/26 01:21:34;;;;;;;7.03;3.08;;;;;;;16.47;86.00;101519.91;5034164;28;20463;-64
2021/08/26 01:24:05;;;;;;;8.45;3.55;;;;;;;16.48;86.01;101523.53;5033999;28;20049;-64
2021/08/26 01:26:43;;;;;;;7.80;3.70;;;;;;;16.48;86.01;101529.84;5032873;28;20160;-63
2021/08/26 01:29:11;;;;;;;5.05;2.90;;;;;;;16.50;85.73;101532.28;5033770;28;20041;-64
2021/08/26 01:31:40;;;;;;;5.82;3.38;;;;;;;16.52;85.98;101532.81;5032639;28;20460;-64
2021/08/26 01:34:08;;;;;;;7.03;3.40;;;;;;;16.52;86.20;101528.13;5033525;28;20045;-64
2021/08/26 01:36:36;;;;;;;7.47;3.45;;;;;;;16.51;85.77;101517.44;5032966;28;20038;-64
2021/08/26 01:39:06;;;;;;;9.85;3.47;;;;;;;16.49;85.22;101519.66;5033733;28;20049;-64
2021/08/26 01:41:48;;;;;;;9.50;3.33;;;;;;;16.45;85.14;101516.66;5033699;28;20041;-65
2021/08/26 01:44:18;;;;;;;8.52;3.35;;;;;;;16.42;85.73;101511.72;5033509;28;20037;-64
2021/08/26 01:46:46;;;;;;;9.40;3.30;;;;;;;16.42;85.29;101506.22;5032318;28;20415;-65
2021/08/26 01:49:13;;;;;;;9.23;3.20;;;;;;;16.42;85.14;101497.97;5032106;28;20048;-64
2021/08/26 01:51:41;;;;;;;5.95;2.70;;;;;;;16.43;84.83;101499.63;5033263;28;20492;-64
2021/08/26 01:54:09;;;;;;;5.90;3.00;;;;;;;16.46;84.89;101503.72;5033487;28;20043;-64
2021/08/26 01:56:38;;;;;;;6.60;2.80;;;;;;;16.46;83.76;101504.53;5033283;28;20046;-63
2021/08/26 01:59:06;;;;;;;7.20;3.30;;;;;;;16.46;83.03;101501.78;5033660;28;20076;-64
2021/08/26 02:01:33;;;;;;;9.45;2.80;;;;;;;16.46;82.10;101507.28;5032308;28;20037;-64
2021/08/26 02:04:02;;;;;;;9.23;3.17;;;;;;;16.41;80.77;101504.59;5033590;28;20120;-64
2021/08/26 02:06:29;;;;;;;8.20;2.75;;;;;;;16.34;79.94;101507.69;5033263;28;20488;-64
2021/08/26 02:08:57;;;;;;;9.93;3.35;;;;;;;16.30;79.50;101503.06;5033488;28;20488;-64
2021/08/26 02:11:25;;;;;;;7.20;2.97;;;;;;;16.30;79.72;101492.03;5033333;28;20140;-64
2021/08/26 02:13:52;;;;;;;8.85;3.05;;;;;;;16.32;78.40;101503.59;5032623;28;20056;-64
2021/08/26 02:16:20;;;;;;;11.43;3.53;;;;;;;16.31;78.26;101497.28;5033098;28;20439;-63
2021/08/26 02:18:47;;;;;;;8.63;3.22;;;;;;;16.31;78.30;101508.28;5032555;28;20103;-64
2021/08/26 02:21:15;;;;;;;11.27;3.20;;;;;;;16.34;77.64;101512.38;5033600;28;20046;-64
2021/08/26 02:23:42;;;;;;;8.73;3.15;;;;;;;16.33;77.29;101521.72;5032943;28;20053;-63
2021/08/26 02:26:12;;;;;;;6.75;3.10;;;;;;;16.32;77.04;101520.09;5033431;28;20068;-65
2021/08/26 02:28:39;;;;;;;6.80;3.00;;;;;;;16.30;77.57;101505.81;5032766;28;20045;-62
2021/08/26 02:31:07;;;;;;;9.98;3.42;;;;;;;16.33;77.10;101502.47;5032708;28;20064;-62
2021/08/26 02:33:34;;;;;;;10.70;3.40;;;;;;;16.29;76.24;101495.91;5032909;28;20491;-63
2021/08/26 02:36:02;;;;;;;11.93;3.17;;;;;;;16.24;75.97;101496.78;5032832;28;20404;-61
2021/08/26 02:38:30;;;;;;;9.77;3.90;;;;;;;16.19;73.89;101496.84;5033080;28;20033;-62
2021/08/26 02:40:57;;;;;;;9.20;3.78;;;;;;;16.13;73.04;101504.28;5031167;28;20073;-63
2021/08/26 02:43:25;;;;;;;9.52;3.78;;;;;;;16.12;72.85;101499.91;5032506;28;20037;-63
2021/08/26 02:45:52;;;;;;;12.48;3.75;;;;;;;16.12;72.70;101494.41;5031456;28;20051;-64
2021/08/26 02:48:20;;;;;;;13.60;4.22;;;;;;;16.18;72.60;101492.44;5032347;28;20065;-63
2021/08/26 02:50:48;;;;;;;13.32;4.43;;;;;;;16.16;72.24;101495.50;5032384;28;20045;-63
2021/08/26 02:53:15;;;;;;;11.75;4.13;;;;;;;16.18;72.70;101498.75;5032524;28;20041;-63
2021/08/26 02:55:43;;;;;;;12.43;3.92;;;;;;;16.19;72.89;101494.91;5032371;28;20049;-63
2021/08/26 02:58:11;;;;;;;10.93;3.65;;;;;;;16.19;72.43;101503.16;5030695;28;20136;-63
2021/08/26 03:00:39;;;;;;;11.40;4.25;;;;;;;16.19;72.17;101496.84;5032716;28;20042;-62
2021/08/26 03:03:07;;;;;;;14.38;4.22;;;;;;;16.16;70.63;101506.50;5032188;28;20124;-63
2021/08/26 03:05:35;;;;;;;13.65;4.05;;;;;;;16.19;71.21;101496.84;5032447;28;20586;-63
2021/08/26 03:08:02;;;;;;;11.52;3.78;;;;;;;16.23;71.04;101494.31;5032079;28;20395;-63
2021/08/26 03:10:30;;;;;;;9.57;3.70;;;;;;;16.25;71.16;101497.59;5032521;28;20033;-62
2021/08/26 03:12:58;;;;;;;11.85;4.07;;;;;;;16.25;71.39;101500.34;5031381;28;20044;-63
2021/08/26 03:15:25;;;;;;;12.40;4.35;;;;;;;16.26;72.12;101496.47;5032165;28;20038;-63
2021/08/26 03:17:53;;;;;;;12.05;4.00;;;;;;;16.23;73.25;101499.81;5032127;28;20045;-63
2021/08/26 03:20:20;;;;;;;16.23;5.07;;;;;;;16.21;73.88;101502.88;5031470;28;20045;-61
2021/08/26 03:22:49;;;;;;;12.18;3.90;;;;;;;16.17;73.90;101486.13;5032521;28;20072;-65
2021/08/26 03:25:16;;;;;;;16.20;4.45;;;;;;;16.15;73.43;101496.59;5031452;28;20103;-65
2021/08/26 03:27:44;;;;;;;14.45;4.40;;;;;;;16.11;72.63;101503.75;5032092;28;20048;-64
2021/08/26 03:30:12;;;;;;;14.15;4.15;;;;;;;16.10;73.57;101490.31;5031853;28;20419;-62
2021/08/26 03:32:40;;;;;;;10.90;3.90;;;;;;;16.11;73.08;101495.50;5032220;28;20443;-63
2021/08/26 03:35:08;;;;;;;14.18;4.25;;;;;;;16.10;72.98;101491.13;5031909;28;20037;-63
2021/08/26 03:37:37;;;;;;;15.65;4.57;;;;;;;16.09;72.64;101497.75;5031865;28;20459;-63
2021/08/26 03:40:05;;;;;;;13.68;3.80;;;;;;;16.09;73.12;101500.50;5031728;28;20065;-64
2021/08/26 03:42:33;;;;;;;13.70;3.90;;;;;;;16.07;73.35;101502.72;5031367;28;20054;-63
2021/08/26 03:45:00;;;;;;;14.50;4.32;;;;;;;16.05;73.04;101499.44;5032284;28;20041;-64
2021/08/26 03:47:28;;;;;;;17.65;4.50;;;;;;;16.01;73.10;101498.34;5031581;28;20476;-63
2021/08/26 03:49:55;;;;;;;14.73;4.95;;;;;;;15.94;72.26;101493.19;5031689;28;20058;-63
2021/08/26 03:52:23;;;;;;;16.98;4.55;;;;;;;15.91;71.98;101498.44;5031385;28;20510;-63
2021/08/26 03:54:51;;;;;;;14.20;4.20;;;;;;;15.91;71.19;101482.78;5031224;28;20037;-63
2021/08/26 03:57:18;;;;;;;13.13;4.10;;;;;;;15.94;71.30;101481.38;5031421;28;20484;-63
2021/08/26 03:59:46;;;;;;;11.93;3.90;;;;;;;15.92;71.12;101480.84;5031611;28;20116;-63
2021/08/26 04:02:13;;;;;;;13.02;4.38;;;;;;;15.89;70.84;101485.00;5031577;28;20033;-63
2021/08/26 04:04:41;;;;;;;13.90;4.15;;;;;;;15.91;70.71;101481.97;5031494;28;20046;-62
2021/08/26 04:07:09;;;;;;;10.65;3.97;;;;;;;15.93;70.89;101488.81;5031929;28;20412;-62
2021/08/26 04:09:36;;;;;;;17.42;4.50;;;;;;;15.94;70.26;101484.94;5031982;28;20049;-64
2021/08/26 04:12:04;;;;;;;16.35;4.40;;;;;;;15.95;70.39;101483.03;5035588;28;20048;-65
2021/08/26 04:14:51;;;;;;;15.07;4.47;;;;;;;15.96;69.97;101487.41;5035414;28;20057;-65
2021/08/26 04:17:39;;;;;;;16.45;4.53;;;;;;;15.94;70.05;101492.38;5035012;28;20080;-65
2021/08/26 04:20:26;;;;;;;10.85;3.58;;;;;;;15.95;69.85;101483.84;5034076;28;20050;-65
2021/08/26 04:23:09;;;;;;;15.35;3.85;;;;;;;15.94;69.41;101486.88;5034314;28;20042;-62
2021/08/26 04:25:50;;;;;;;15.75;3.95;;;;;;;15.93;69.43;101482.50;5033709;28;20107;-64
2021/08/26 04:28:38;;;;;;;15.30;4.60;;;;;;;15.92;69.24;101484.44;5034924;28;20046;-64
2021/08/26 04:31:25;;;;;;;16.38;4.50;;;;;;;15.88;69.38;101483.34;5035104;28;20050;-65
2021/08/26 04:33:53;;;;;;;13.27;3.60;;;;;;;15.85;69.20;101483.09;5034664;28;20040;-63
2021/08/26 04:36:21;;;;;;;14.60;4.43;;;;;;;15.84;69.51;101481.47;5035228;28;20183;-63
2021/08/26 04:38:49;;;;;;;10.82;3.95;;;;;;;15.86;69.59;101479.25;5034580;28;20043;-63
2021/08/26 04:41:16;;;;;;;14.20;4.13;;;;;;;15.86;69.53;101479.25;5034712;28;20080;-63
2021/08/26 04:43:44;;;;;;;14.45;3.75;;;;;;;15.86;69.82;101480.06;5035131;28;20037;-63
2021/08/26 04:46:11;;;;;;;17.02;4.07;;;;;;;15.87;69.41;101475.41;5034699;28;20037;-62
2021/08/26 04:48:39;;;;;;;15.48;4.65;;;;;;;15.87;69.25;101472.66;5034784;28;20042;-63
2021/08/26 04:51:07;;;;;;;14.70;4.45;;;;;;;15.86;69.65;101473.75;5034541;28;20055;-63
2021/08/26 04:53:34;;;;;;;17.38;4.32;;;;;;;15.85;69.36;101467.47;5034446;28;20042;-63
2021/08/26 04:56:02;;;;;;;13.75;4.20;;;;;;;15.82;69.93;101470.75;5033883;28;20381;-63
2021/08/26 04:58:30;;;;;;;14.35;4.63;;;;;;;15.81;69.94;101469.13;5034967;28;20373;-64
2021/08/26 05:00:57;;;;;;;12.18;3.95;;;;;;;15.82;70.30;101461.69;5034179;28;20034;-63
2021/08/26 05:03:25;;;;;;;19.52;4.53;;;;;;;15.79;70.36;101467.78;5034889;28;20048;-63
2021/08/26 05:05:53;;;;;;;14.48;3.83;;;;;;;15.78;70.38;101466.97;5034477;28;20046;-63
2021/08/26 05:08:20;;;;;;;13.93;4.05;;;;;;;15.80;70.57;101463.91;5033615;28;20048;-63
2021/08/26 05:10:51;;;;;;;13.73;3.88;;;;;;;15.78;71.00;101464.22;5034616;28;20045;-62
2021/08/26 05:13:19;;;;;;;16.15;4.78;;;;;;;15.79;71.36;101467.78;5034230;28;20045;-63
2021/08/26 05:15:47;;;;;;;14.70;4.47;;;;;;;15.77;71.25;101476.28;5034687;28;20049;-63
2021/08/26 05:18:15;;;;;;;15.32;4.05;;;;;;;15.75;71.48;101473.00;5033456;28;20034;-63
2021/08/26 05:20:43;;;;;;;17.88;4.75;;;;;;;15.75;71.23;101462.03;5033880;28;20144;-60
2021/08/26 05:23:10;;;;;;;13.48;4.15;;;;;;;15.76;71.60;101467.25;5032989;28;20037;-63
2021/08/26 05:25:38;;;;;;;17.48;4.82;;;;;;;15.76;71.18;101463.69;5034101;28;20132;-63
2021/08/26 05:28:05;;;;;;;20.48;5.13;;;;;;;15.76;71.51;101458.19;5034109;28;20056;-63
2021/08/26 05:30:36;;;;;;;17.70;5.32;;;;;;;15.73;71.88;101459.56;5033746;28;20056;-58
2021/08/26 05:33:05;;;;;;;15.20;4.20;;;;;;;15.73;71.75;101454.09;5033982;28;20092;-62
2021/08/26 05:35:32;;;;;;;21.42;5.93;;;;;;;15.72;71.82;101452.44;5032013;28;20049;-63
2021/08/26 05:38:02;;;;;;;16.17;4.60;;;;;;;15.71;71.88;101461.78;5033827;28;20037;-63
2021/08/26 05:40:29;;;;;;;16.45;4.72;;;;;;;15.73;72.30;101459.56;5034751;28;20037;-62
2021/08/26 05:42:57;;;;;;;12.68;4.15;;;;;;;15.72;71.83;101457.09;5033756;28;20488;-62
2021/08/26 05:45:24;;;;;;;15.07;4.75;;;;;;;15.68;72.04;101461.50;5033630;28;20037;-60
2021/08/26 05:47:55;;;;;;;17.15;4.55;;;;;;;15.68;72.00;101462.34;5032172;28;20041;-61
2021/08/26 05:50:24;;;;;;;14.35;3.97;;;;;;;15.67;72.34;101457.13;5032982;28;20108;-63
2021/08/26 05:52:51;;;;;;;15.48;4.28;;;;;;;15.70;72.29;101462.88;5033051;28;20115;-62
2021/08/26 05:55:19;;;;;;;18.75;4.72;;;;;;;15.73;71.64;101461.50;5030806;28;20124;-62
2021/08/26 05:57:47;;;;;;;15.77;4.53;;;;;;;15.71;71.72;101461.78;5032907;28;20065;-60
2021/08/26 06:00:15;;;;;;;17.77;4.93;;;;;;;15.72;71.72;101463.41;5033226;28;20042;-59
2021/08/26 06:02:43;;;;;;;18.38;4.78;;;;;;;15.73;71.44;101456.03;5032544;28;20072;-60
2021/08/26 06:05:11;;;;;;;13.32;4.22;;;;;;;15.77;71.71;101459.81;4335703;28;10000650;-60
2021/08/26 06:07:38;;;;;;;13.32;4.00;;;;;;;15.76;71.15;101464.50;5029114;28;20057;-59
2021/08/26 06:10:07;;;;;;;25.52;5.32;;;;;;;15.79;71.17;101462.28;5030790;28;20033;-59
2021/08/26 06:12:39;;;;;;;21.35;4.65;;;;;;;15.79;71.15;101462.28;5030897;28;20033;-59
2021/08/26 06:15:08;;;;;;;14.77;3.83;;;;;;;15.79;70.88;101463.09;5030678;28;20053;-55
2021/08/26 06:17:36;;;;;;;14.00;4.43;;;;;;;15.75;70.49;101468.34;5022650;28;20049;-60
2021/08/26 06:20:06;;;;;;;20.17;5.22;;;;;;;15.75;71.08;101462.88;5018555;28;20068;-60
2021/08/26 06:22:33;;;;;;;16.45;4.55;;;;;;;15.76;70.91;101470.00;5030719;28;20076;-58
2021/08/26 06:25:02;;;;;;;13.65;4.50;;;;;;;15.79;70.94;101468.59;5029991;28;20039;-59
2021/08/26 06:27:29;;;;;;;16.92;4.10;;;;;;;15.76;70.55;101456.25;5030584;28;20071;-58
2021/08/26 06:29:57;;;;;;;14.32;4.30;;;;;;;15.79;69.98;101467.78;5023200;28;20034;-60
2021/08/26 06:32:25;;;;;;;16.17;4.35;;;;;;;15.80;69.82;101469.41;5030775;28;20037;-58
2021/08/26 06:34:52;;;;;;;16.70;4.03;;;;;;;15.82;70.04;101465.25;5032363;28;20507;-61
2021/08/26 06:37:20;;;;;;;18.08;4.35;;;;;;;15.87;69.86;101462.47;5031386;28;20038;-60
2021/08/26 06:39:48;;;;;;;14.43;3.80;;;;;;;15.87;69.44;101469.91;5033078;28;20068;-60
2021/08/26 06:42:15;;;;;;;15.45;4.38;;;;;;;15.87;69.48;101458.91;5033518;28;20045;-62
2021/08/26 06:44:43;;;;;;;19.42;5.07;;;;;;;15.89;69.42;101453.94;5033924;28;20053;-55
2021/08/26 06:47:11;;;;;;;18.67;4.28;;;;;;;15.90;69.96;101458.34;5031484;28;20029;-57
2021/08/26 06:49:40;;;;;;;13.95;3.80;;;;;;;15.87;70.24;101464.41;5032389;28;20052;-56
2021/08/26 06:52:08;;;;;;;15.45;4.47;;;;;;;15.87;70.01;101469.91;5028735;28;20048;-59
2021/08/26 06:54:37;;;;;;;13.02;3.97;;;;;;;15.89;70.06;101470.44;5031837;28;20037;-57
2021/08/26 06:57:06;;;;;;;14.52;3.83;;;;;;;15.91;70.28;101474.53;5032594;28;20042;-56
2021/08/26 06:59:34;;;;;;;15.07;4.15;;;;;;;15.95;70.09;101472.03;5031995;28;20124;-57
2021/08/26 07:02:02;;;;;;;13.50;4.43;;;;;;;16.01;70.10;101470.06;5032639;28;20073;-58
2021/08/26 07:04:30;;;;;;;16.48;4.47;;;;;;;16.03;69.73;101479.66;5030067;28;20092;-57
2021/08/26 07:06:58;;;;;;;14.25;4.57;;;;;;;16.02;69.79;101471.69;5032788;28;20057;-58
2021/08/26 07:09:26;;;;;;;17.83;4.45;;;;;;;16.04;69.95;101474.97;5031629;28;20084;-58
2021/08/26 07:11:53;;;;;;;17.77;4.50;;;;;;;16.03;69.99;101463.16;5032630;28;20057;-54
2021/08/26 07:14:21;;;;;;;16.35;4.18;;;;;;;16.07;70.19;101480.72;5031414;28;20053;-55
2021/08/26 07:16:48;;;;;;;12.70;4.13;;;;;;;16.10;70.55;101474.63;5032475;28;20037;-51
2021/08/26 07:19:16;;;;;;;17.00;4.47;;;;;;;16.10;69.28;101482.88;5030516;28;20124;-52
2021/08/26 07:21:44;;;;;;;12.48;3.40;;;;;;;16.09;67.81;101483.16;5031760;28;20046;-53
2021/08/26 07:24:11;;;;;;;14.10;3.80;;;;;;;16.10;67.63;101477.38;5031644;28;20042;-57
2021/08/26 07:26:39;;;;;;;11.20;3.28;;;;;;;16.12;68.00;101477.94;5032305;28;20060;-58
2021/08/26 07:29:07;;;;;;;20.42;5.57;;;;;;;16.23;69.22;101472.31;5031279;28;20063;-52
2021/08/26 07:31:34;;;;;;;18.75;4.30;;;;;;;16.34;67.74;101476.63;5031830;28;20046;-57
2021/08/26 07:34:02;;;;;;;15.35;3.67;;;;;;;16.36;68.23;101480.72;5031110;28;20052;-58
2021/08/26 07:36:29;;;;;;;13.70;3.58;;;;;;;16.30;67.97;101467.31;5031824;28;20396;-57
2021/08/26 07:38:57;;;;;;;13.13;4.28;;;;;;;16.28;68.06;101484.06;5031381;28;20068;-53
2021/08/26 07:41:29;;;;;;;12.38;3.97;;;;;;;16.24;67.95;101473.97;5031597;28;20045;-57
2021/08/26 07:43:57;;;;;;;12.43;3.90;;;;;;;16.24;68.37;101476.72;5030987;28;20045;-58
2021/08/26 07:46:25;;;;;;;14.20;3.50;;;;;;;16.25;68.22;101476.41;5030053;28;20037;-56
2021/08/26 07:48:53;;;;;;;14.38;4.07;;;;;;;16.23;68.61;101462.13;5030512;28;20059;-56
2021/08/26 07:51:20;;;;;;;13.50;4.10;;;;;;;16.18;68.02;101482.25;5031252;28;20049;-58
2021/08/26 07:53:48;;;;;;;14.32;4.15;;;;;;;16.26;68.29;101467.06;5031544;28;20041;-57
2021/08/26 07:56:15;;;;;;;14.10;3.60;;;;;;;16.32;68.58;101465.09;5031568;28;20045;-58
2021/08/26 07:58:43;;;;;;;13.07;4.15;;;;;;;16.33;68.36;101461.22;5029139;28;20686;-56
2021/08/26 08:01:11;;;;;;;13.95;3.65;;;;;;;16.26;68.26;101463.47;5031468;28;20040;-55
2021/08/26 08:03:39;;;;;;;17.13;3.95;;;;;;;16.22;68.18;101465.19;5031151;28;20052;-57
2021/08/26 08:06:07;;;;;;;19.52;4.75;;;;;;;16.26;70.07;101461.56;5031101;28;20045;-53
2021/08/26 08:08:35;;;;;;;14.57;3.78;;;;;;;16.30;68.88;101470.03;5037749;28;20431;-55
2021/08/26 08:11:03;;;;;;;15.50;3.65;;;;;;;16.25;69.03;101464.59;5030971;28;20037;-58
2021/08/26 08:13:31;;;;;;;19.15;3.88;;;;;;;16.23;68.50;101472.31;5031185;28;20060;-55
2021/08/26 08:16:00;;;;;;;13.95;3.53;;;;;;;16.24;68.76;101474.78;5030962;28;20037;-57
2021/08/26 08:18:28;;;;;;;13.00;3.78;;;;;;;16.23;68.60;101469.56;5030615;28;20050;-57
2021/08/26 08:20:56;;;;;;;13.55;3.47;;;;;;;16.25;68.96;101464.59;5031076;28;20419;-58
2021/08/26 08:23:23;;;;;;;13.30;3.53;;;;;;;16.24;69.17;101468.47;5031352;28;20546;-56
2021/08/26 08:25:51;;;;;;;13.88;3.67;;;;;;;16.25;68.65;101470.09;5029093;28;20045;-59
2021/08/26 08:28:19;;;;;;;16.17;3.83;;;;;;;16.28;68.93;101458.50;5031121;28;20125;-51
2021/08/26 08:30:47;;;;;;;9.82;3.67;;;;;;;16.31;68.36;101463.47;5030477;28;20033;-56
2021/08/26 08:33:16;;;;;;;14.73;3.78;;;;;;;16.31;68.13;101460.72;5030743;28;20041;-52
2021/08/26 08:35:44;;;;;;;11.43;3.65;;;;;;;16.30;68.59;101454.38;5030966;28;20039;-55
2021/08/26 08:38:11;;;;;;;14.57;3.63;;;;;;;16.34;68.74;101457.38;5030822;28;20041;-50
2021/08/26 08:40:40;;;;;;;12.32;3.60;;;;;;;16.36;68.61;101455.16;5030648;28;20060;-57
2021/08/26 08:43:08;;;;;;;17.92;3.92;;;;;;;16.40;68.43;101458.94;5031092;28;20044;-53
2021/08/26 08:45:35;;;;;;;8.77;3.25;;;;;;;16.42;67.99;101459.47;5030528;28;20120;-52
2021/08/26 08:48:05;;;;;;;14.40;3.67;;;;;;;16.42;67.54;101459.47;5030615;28;20048;-56
2021/08/26 08:50:33;;;;;;;12.75;3.70;;;;;;;16.44;67.88;101457.25;5030107;28;20055;-54
2021/08/26 08:53:00;;;;;;;12.43;3.22;;;;;;;16.45;68.31;101458.91;5031000;28;20053;-52
2021/08/26 08:55:28;;;;;;;11.52;3.00;;;;;;;16.48;68.48;101469.31;5030356;28;20467;-52
2021/08/26 08:57:55;;;;;;;10.65;3.08;;;;;;;16.52;68.17;101462.09;5032975;28;20049;-57
2021/08/26 09:00:24;;;;;;;15.80;3.70;;;;;;;16.60;68.47;101458.72;5033537;28;20033;-51
2021/08/26 09:02:51;;;;;;;13.38;3.70;;;;;;;16.67;67.94;101460.28;5034828;28;20477;-53
2021/08/26 09:05:21;;;;;;;11.43;3.35;;;;;;;16.69;67.18;101463.56;5034388;28;20137;-53
2021/08/26 09:07:49;;;;;;;10.13;3.22;;;;;;;16.68;67.55;101456.44;5033057;28;20251;-53
2021/08/26 09:10:18;;;;;;;13.68;3.30;;;;;;;16.70;67.41;101456.97;5034108;28;20567;-53
2021/08/26 09:12:47;;;;;;;12.52;3.40;;;;;;;16.65;66.85;101457.84;5034372;28;20087;-53
2021/08/26 09:15:17;;;;;;;11.98;3.53;;;;;;;16.60;67.56;101455.97;5033532;28;20132;-54
2021/08/26 09:17:45;;;;;;;11.52;3.83;;;;;;;16.65;68.13;101454.28;5033988;28;20096;-58
2021/08/26 09:20:16;;;;;;;12.93;3.17;;;;;;;16.68;68.09;101449.00;5033245;28;20062;-55
2021/08/26 09:22:44;;;;;;;9.90;3.08;;;;;;;16.69;67.81;101458.91;5033914;28;20163;-55
2021/08/26 09:25:14;;;;;;;8.35;2.92;;;;;;;16.69;67.85;101449.81;5033821;28;20042;-57
2021/08/26 09:27:44;;;;;;;16.60;4.15;;;;;;;16.69;67.70;101447.06;5033006;28;20073;-57
2021/08/26 09:30:17;;;;;;;15.18;3.85;;;;;;;16.71;67.04;101442.06;5033097;28;20095;-55
2021/08/26 09:32:50;;;;;;;12.30;3.13;;;;;;;16.67;66.80;101449.28;5033740;28;20037;-58
2021/08/26 09:35:26;;;;;;;15.43;4.00;;;;;;;16.65;67.70;101451.53;5033423;28;20558;-57
2021/08/26 09:37:57;;;;;;;16.77;4.00;;;;;;;16.58;68.15;101452.69;5033715;28;20475;-56
2021/08/26 09:40:28;;;;;;;9.25;3.20;;;;;;;16.60;71.51;101455.16;5033428;28;20049;-56
2021/08/26 09:43:06;;;;;;;9.68;3.08;;;;;;;16.51;73.84;101452.22;5033570;28;20124;-57
2021/08/26 09:45:36;;;;;;;9.38;3.05;;;;;;;16.44;74.93;101450.94;5032824;28;20037;-55
2021/08/26 09:48:05;;;;;;;9.52;2.88;;;;;;;16.41;75.33;101457.84;5033827;28;20041;-57
2021/08/26 09:50:54;;;;;;;9.60;2.90;;;;;;;16.37;75.14;101462.28;5032699;28;20041;-54
2021/08/26 09:53:32;;;;;;;16.65;3.40;;;;;;;16.34;75.60;101462.88;5030835;28;20037;-56
2021/08/26 09:56:08;;;;;;;9.10;2.63;;;;;;;16.38;75.55;101469.44;5033115;28;20491;-57
2021/08/26 09:58:36;;;;;;;8.02;2.80;;;;;;;16.40;75.32;101461.69;5033238;28;20046;-56
2021/08/26 10:01:16;;;;;;;10.00;3.05;;;;;;;16.36;74.96;101466.97;5032935;28;20100;-57
2021/08/26 10:03:44;;;;;;;11.05;3.05;;;;;;;16.43;75.09;101460.28;5033511;28;20128;-57
2021/08/26 10:06:13;;;;;;;8.18;2.60;;;;;;;16.49;74.99;101457.19;5032852;28;20042;-57
2021/08/26 10:08:43;;;;;;;9.52;3.90;;;;;;;16.61;75.87;101456.78;5032884;28;20492;-57
2021/08/26 10:11:12;;;;;;;11.73;3.35;;;;;;;16.69;75.03;101461.66;5014982;28;20065;-56
2021/08/26 10:13:39;;;;;;;10.25;3.33;;;;;;;16.72;74.40;101455.56;5015952;28;20128;-55
2021/08/26 10:16:08;;;;;;;10.63;2.97;;;;;;;16.72;73.37;101452.00;5031488;28;20045;-56
2021/08/26 10:18:36;;;;;;;10.80;3.35;;;;;;;16.71;74.40;101466.84;5031550;28;20076;-56
2021/08/26 10:21:06;;;;;;;10.70;3.42;;;;;;;16.67;72.36;101465.78;5030810;28;20068;-57
2021/08/26 10:23:36;;;;;;;12.52;3.28;;;;;;;16.67;72.48;101468.53;5033243;28;20451;-54
2021/08/26 10:26:07;;;;;;;16.17;3.33;;;;;;;16.66;72.14;101461.41;5032231;28;20053;-51
2021/08/26 10:28:36;;;;;;;11.30;3.58;;;;;;;16.67;72.79;101465.78;5032049;28;20144;-57
2021/08/26 10:31:23;;;;;;;9.65;2.97;;;;;;;16.69;73.20;101467.16;5031391;28;20053;-56
2021/08/26 10:33:51;;;;;;;8.75;2.85;;;;;;;16.75;72.99;101468.72;5031866;28;22081;-56
2021/08/26 10:36:30;;;;;;;7.78;2.80;;;;;;;16.80;72.29;101465.13;4706956;28;10000614;-58
2021/08/26 10:39:28;;;;;;;8.75;2.70;;;;;;;16.85;71.73;101456.78;5026707;28;20255;-59
2021/08/26 10:41:57;;;;;;;9.07;3.20;;;;;;;16.89;71.15;101463.34;5023115;28;20044;-57
2021/08/26 10:45:03;;;;;;;13.43;3.40;;;;;;;16.92;71.12;101462.75;5030425;28;20045;-58
2021/08/26 10:47:48;;;;;;;9.68;3.33;;;;;;;16.95;71.17;101450.34;5021883;28;20641;-57
2021/08/26 10:50:36;;;;;;;8.30;3.25;;;;;;;17.01;71.22;101457.44;5028700;28;20416;-58
2021/08/26 10:53:08;;;;;;;11.80;3.42;;;;;;;17.03;71.34;101457.94;5029823;28;20055;-58
2021/08/26 10:55:39;;;;;;;9.27;3.08;;;;;;;17.08;71.41;101457.03;5030161;28;20025;-59
2021/08/26 10:58:22;;;;;;;11.88;3.30;;;;;;;17.10;70.95;101458.41;5029892;28;20045;-58
2021/08/26 11:00:58;;;;;;;10.88;3.40;;;;;;;17.07;70.20;101460.91;5024977;28;20470;-58
2021/08/26 11:03:35;;;;;;;7.57;2.90;;;;;;;17.06;70.02;101464.81;5021303;28;20136;-58
2021/08/26 11:06:19;;;;;;;9.35;3.13;;;;;;;17.04;70.41;101454.88;5027496;28;20052;-53
2021/08/26 11:08:51;;;;;;;9.27;3.47;;;;;;;17.15;70.34;101465.75;5023787;28;20049;-53
2021/08/26 11:11:33;;;;;;;9.45;3.28;;;;;;;17.17;70.52;101463.53;5029103;28;20554;-56
2021/08/26 11:14:07;;;;;;;14.68;3.72;;;;;;;17.15;69.94;101468.50;5026911;28;20504;-59
2021/08/26 11:16:43;;;;;;;9.18;3.75;;;;;;;17.12;69.59;101461.66;5029304;28;20119;-59
2021/08/26 11:19:16;;;;;;;8.73;3.35;;;;;;;17.14;69.99;101462.19;5015813;28;20068;-59
2021/08/26 11:21:47;;;;;;;12.75;3.50;;;;;;;17.14;70.05;101470.44;5017152;28;20063;-60
2021/08/26 11:24:20;;;;;;;12.88;3.88;;;;;;;17.14;70.60;101464.94;5028054;28;20211;-60
2021/08/26 11:26:52;;;;;;;12.60;3.67;;;;;;;17.17;71.69;101458.00;5028518;28;20073;-59
2021/08/26 11:29:23;;;;;;;10.57;3.60;;;;;;;17.20;71.21;101468.47;5029292;28;20124;-58
2021/08/26 11:32:03;;;;;;;11.43;3.40;;;;;;;17.24;71.12;101458.47;5026111;28;20063;-60
2021/08/26 11:34:48;;;;;;;10.68;3.53;;;;;;;17.22;69.00;101453.28;5028844;28;20049;-60